createdAt,value
2023-04-16T00:01:34.795Z,15.32
2023-04-16T00:04:03.262Z,14.27
2023-04-16T00:06:30.238Z,13.82
2023-04-16T00:08:56.760Z,15.63
2023-04-16T00:11:23.445Z,16.95
2023-04-16T00:13:49.944Z,15.43
2023-04-16T00:16:16.529Z,15.95
2023-04-16T00:18:43.091Z,16.08
2023-04-16T00:21:11.025Z,16.73
2023-04-16T00:23:37.888Z,15.40
2023-04-16T00:26:04.775Z,13.40
2023-04-16T00:28:31.315Z,17.00
2023-04-16T00:30:58.261Z,18.48
2023-04-16T00:33:24.816Z,16.23
2023-04-16T00:35:51.412Z,19.05
2023-04-16T00:38:19.517Z,16.50
2023-04-16T00:40:47.270Z,19.27
2023-04-16T00:43:21.620Z,19.02
2023-04-16T00:45:48.929Z,20.95
2023-04-16T00:48:15.857Z,22.70
2023-04-16T00:50:42.575Z,25.85
2023-04-16T00:53:09.499Z,26.42
2023-04-16T00:55:39.431Z,24.00
2023-04-16T00:58:06.017Z,25.73
2023-04-16T01:00:32.677Z,24.92
2023-04-16T01:02:59.697Z,30.80
2023-04-16T01:05:26.643Z,31.65
2023-04-16T01:07:53.346Z,29.85
2023-04-16T01:10:20.063Z,35.85
2023-04-16T01:12:47.947Z,32.95
2023-04-16T01:15:14.463Z,46.65
2023-04-16T01:17:41.180Z,36.25
2023-04-16T01:20:08.237Z,42.22
2023-04-16T01:22:36.124Z,44.20
2023-04-16T01:25:02.790Z,45.58
2023-04-16T01:27:29.419Z,46.35
2023-04-16T01:29:55.941Z,53.03
2023-04-16T01:32:31.901Z,43.22
2023-04-16T01:34:58.601Z,60.75
2023-04-16T01:37:25.137Z,49.72
2023-04-16T01:39:53.415Z,50.58
2023-04-16T01:42:19.917Z,51.97
2023-04-16T01:44:47.164Z,47.20
2023-04-16T01:47:13.761Z,55.60
2023-04-16T01:49:40.367Z,51.75
2023-04-16T01:52:07.151Z,52.17
2023-04-16T01:54:33.774Z,48.47
2023-04-16T01:57:01.700Z,51.00
2023-04-16T01:59:28.313Z,49.30
2023-04-16T02:01:55.618Z,50.15
2023-04-16T02:04:22.316Z,49.60
2023-04-16T02:06:48.866Z,45.45
2023-04-16T02:09:15.503Z,52.17
2023-04-16T02:11:42.060Z,54.08
2023-04-16T02:14:10.036Z,44.38
2023-04-16T02:16:36.614Z,49.45
2023-04-16T02:19:19.596Z,44.28
2023-04-16T02:21:46.272Z,46.78
2023-04-16T02:24:12.823Z,46.67
2023-04-16T02:26:40.319Z,43.58
2023-04-16T02:29:14.368Z,46.50
2023-04-16T02:31:44.689Z,44.72
2023-04-16T02:34:12.706Z,52.75
2023-04-16T02:36:40.425Z,46.10
2023-04-16T02:39:07.084Z,47.05
2023-04-16T02:41:33.879Z,51.55
2023-04-16T02:44:00.534Z,46.80
2023-04-16T02:46:28.526Z,46.72
2023-04-16T02:48:55.081Z,45.65
2023-04-16T02:51:21.612Z,45.20
2023-04-16T02:53:48.121Z,44.83
2023-04-16T02:56:14.718Z,49.03
2023-04-16T02:58:41.289Z,50.05
2023-04-16T03:01:07.841Z,50.70
2023-04-16T03:03:35.845Z,49.63
2023-04-16T03:06:02.400Z,40.70
2023-04-16T03:08:28.982Z,40.40
2023-04-16T03:10:55.495Z,42.58
2023-04-16T03:13:22.100Z,33.50
2023-04-16T03:15:49.308Z,40.33
2023-04-16T03:18:16.168Z,33.63
2023-04-16T03:20:44.093Z,31.95
2023-04-16T03:23:11.400Z,31.95
2023-04-16T03:25:38.169Z,30.98
2023-04-16T03:28:04.764Z,28.00
2023-04-16T03:30:32.636Z,34.22
2023-04-16T03:32:59.187Z,27.10
2023-04-16T03:35:25.819Z,26.70
2023-04-16T03:37:53.686Z,30.38
2023-04-16T03:40:20.220Z,28.05
2023-04-16T03:42:46.761Z,26.48
2023-04-16T03:45:13.265Z,31.55
2023-04-16T03:47:40.036Z,32.03
2023-04-16T03:50:08.898Z,30.45
2023-04-16T03:52:36.167Z,30.33
2023-04-16T03:55:05.086Z,38.47
2023-04-16T03:57:31.788Z,39.17
2023-04-16T04:00:05.612Z,44.60
2023-04-16T04:02:40.996Z,37.10
2023-04-16T04:05:13.849Z,44.30
2023-04-16T04:07:41.057Z,46.40
2023-04-16T04:10:10.386Z,44.85
2023-04-16T04:12:40.074Z,45.17
2023-04-16T04:15:07.905Z,48.30
2023-04-16T04:17:34.467Z,52.88
2023-04-16T04:20:02.260Z,52.30
2023-04-16T04:22:30.824Z,54.67
2023-04-16T04:24:57.396Z,52.70
2023-04-16T04:27:27.180Z,48.45
2023-04-16T04:29:53.720Z,51.00
2023-04-16T04:32:21.851Z,58.97
2023-04-16T04:34:49.130Z,60.15
2023-04-16T04:37:15.754Z,49.00
2023-04-16T04:39:43.768Z,51.53
2023-04-16T04:42:12.339Z,50.63
2023-04-16T04:44:40.415Z,52.25
2023-04-16T04:47:07.984Z,53.38
2023-04-16T04:49:34.921Z,52.75
2023-04-16T04:52:03.270Z,49.25
2023-04-16T04:54:32.002Z,47.38
2023-04-16T04:56:58.933Z,43.78
2023-04-16T04:59:25.773Z,48.88
2023-04-16T05:01:53.940Z,43.63
2023-04-16T05:04:20.549Z,41.97
2023-04-16T05:06:47.082Z,42.97
2023-04-16T05:09:13.605Z,45.88
2023-04-16T05:11:42.006Z,42.58
2023-04-16T05:14:08.710Z,44.05
2023-04-16T05:16:36.377Z,38.05
2023-04-16T05:19:04.599Z,40.30
2023-04-16T05:21:31.325Z,49.55
2023-04-16T05:23:59.060Z,43.33
2023-04-16T05:26:25.605Z,41.63
2023-04-16T05:28:52.290Z,49.90
2023-04-16T05:31:18.882Z,38.10
2023-04-16T05:33:45.629Z,39.92
2023-04-16T05:36:13.504Z,38.58
2023-04-16T05:38:39.991Z,44.47
2023-04-16T05:41:06.518Z,42.45
2023-04-16T05:43:33.158Z,38.05
2023-04-16T05:45:59.701Z,36.03
2023-04-16T05:48:26.265Z,41.10
2023-04-16T05:50:52.817Z,41.60
2023-04-16T05:53:20.692Z,45.78
2023-04-16T05:55:47.554Z,42.83
2023-04-16T05:58:14.091Z,38.72
2023-04-16T06:00:40.660Z,40.17
2023-04-16T06:03:07.394Z,35.53
2023-04-16T06:05:34.213Z,33.00
2023-04-16T06:08:00.782Z,40.20
2023-04-16T06:10:28.703Z,33.90
2023-04-16T06:12:55.224Z,36.05
2023-04-16T06:15:21.718Z,36.67
2023-04-16T06:17:49.259Z,34.97
2023-04-16T06:20:16.088Z,40.05
2023-04-16T06:22:42.677Z,35.60
2023-04-16T06:25:10.296Z,35.70
2023-04-16T06:27:38.186Z,37.80
2023-04-16T06:30:06.350Z,35.22
2023-04-16T06:32:32.898Z,35.55
2023-04-16T06:34:59.627Z,43.55
2023-04-16T06:37:26.192Z,40.58
2023-04-16T06:39:52.721Z,42.03
2023-04-16T06:42:20.117Z,35.40
2023-04-16T06:44:48.023Z,39.58
2023-04-16T06:47:14.595Z,38.47
2023-04-16T06:49:41.364Z,35.28
2023-04-16T06:52:07.989Z,44.17
2023-04-16T06:54:34.591Z,43.03
2023-04-16T06:57:01.180Z,39.47
2023-04-16T06:59:27.959Z,38.78
2023-04-16T07:01:56.417Z,41.58
2023-04-16T07:04:23.795Z,32.50
2023-04-16T07:06:50.349Z,36.17
2023-04-16T07:09:16.846Z,34.78
2023-04-16T07:11:44.632Z,41.47
2023-04-16T07:14:11.267Z,35.03
2023-04-16T07:16:38.036Z,34.92
2023-04-16T07:19:06.033Z,32.63
2023-04-16T07:21:32.871Z,31.23
2023-04-16T07:23:59.358Z,31.83
2023-04-16T07:26:25.888Z,33.50
2023-04-16T07:28:52.414Z,30.00
2023-04-16T07:31:19.630Z,32.30
2023-04-16T07:33:46.262Z,36.10
2023-04-16T07:36:14.074Z,36.28
2023-04-16T07:38:40.535Z,34.58
2023-04-16T07:41:07.048Z,33.88
2023-04-16T07:43:33.510Z,38.83
2023-04-16T07:46:00.011Z,32.47
2023-04-16T07:48:26.748Z,34.78
2023-04-16T07:50:53.302Z,30.98
2023-04-16T07:53:21.199Z,29.15
2023-04-16T07:55:47.754Z,28.70
2023-04-16T07:58:14.414Z,31.30
2023-04-16T08:00:40.898Z,30.42
2023-04-16T08:03:07.660Z,33.90
2023-04-16T08:05:34.354Z,32.15
2023-04-16T08:08:00.858Z,33.05
2023-04-16T08:10:28.823Z,35.42
2023-04-16T08:12:55.327Z,39.40
2023-04-16T08:15:21.831Z,34.28
2023-04-16T08:17:48.651Z,39.97
2023-04-16T08:20:17.629Z,42.10
2023-04-16T08:22:45.844Z,41.90
2023-04-16T08:25:12.345Z,40.42
2023-04-16T08:27:40.387Z,40.30
2023-04-16T08:30:08.137Z,40.47
2023-04-16T08:32:34.933Z,46.97
2023-04-16T08:35:01.896Z,41.13
2023-04-16T08:37:28.458Z,46.97
2023-04-16T08:39:55.059Z,41.53
2023-04-16T08:42:28.938Z,46.10
2023-04-16T08:45:06.391Z,44.10
2023-04-16T08:47:35.087Z,42.45
2023-04-16T08:50:03.594Z,45.92
2023-04-16T08:52:31.199Z,39.15
2023-04-16T08:55:03.642Z,37.45
2023-04-16T08:57:37.160Z,35.30
2023-04-16T09:00:07.778Z,39.75
2023-04-16T09:02:35.009Z,35.13
2023-04-16T09:05:05.277Z,38.72
2023-04-16T09:07:33.303Z,44.13
2023-04-16T09:10:00.581Z,35.97
2023-04-16T09:12:27.414Z,37.72
2023-04-16T09:14:54.733Z,41.33
2023-04-16T09:17:22.677Z,36.65
2023-04-16T09:19:49.321Z,40.72
2023-04-16T09:22:16.037Z,38.38
2023-04-16T09:24:42.547Z,37.20
2023-04-16T09:27:09.156Z,35.58
2023-04-16T09:29:36.656Z,32.88
2023-04-16T09:32:04.187Z,35.30
2023-04-16T09:34:33.559Z,31.40
2023-04-16T09:37:15.597Z,30.98
2023-04-16T09:39:42.720Z,30.05
2023-04-16T09:42:09.301Z,36.70
2023-04-16T09:44:36.660Z,31.23
2023-04-16T09:47:06.664Z,28.95
2023-04-16T09:49:40.813Z,27.27
2023-04-16T09:52:12.435Z,30.08
2023-04-16T09:54:39.039Z,26.95
2023-04-16T09:57:05.701Z,30.60
2023-04-16T09:59:32.545Z,27.33
2023-04-16T10:02:14.623Z,29.60
2023-04-16T10:04:49.270Z,29.27
2023-04-16T10:07:16.853Z,26.48
2023-04-16T10:09:43.574Z,30.48
2023-04-16T10:12:10.597Z,34.47
2023-04-16T10:14:37.117Z,26.65
2023-04-16T10:17:04.518Z,27.75
2023-04-16T10:19:31.938Z,24.73
2023-04-16T10:21:59.918Z,26.02
2023-04-16T10:24:26.470Z,27.80
2023-04-16T10:26:53.325Z,24.55
2023-04-16T10:29:20.448Z,25.88
2023-04-16T10:31:48.202Z,29.45
2023-04-16T10:34:15.763Z,26.73
2023-04-16T10:36:43.089Z,26.67
2023-04-16T10:39:14.750Z,25.98
2023-04-16T10:41:43.611Z,24.83
2023-04-16T10:44:10.781Z,33.95
2023-04-16T10:46:38.962Z,27.67
2023-04-16T10:49:13.696Z,34.47
2023-04-16T10:51:40.934Z,27.27
2023-04-16T10:54:23.200Z,27.58
2023-04-16T10:56:50.341Z,27.25
2023-04-16T10:59:18.668Z,25.73
2023-04-16T11:01:46.786Z,27.45
2023-04-16T11:04:36.095Z,30.52
2023-04-16T11:07:05.941Z,28.83
2023-04-16T11:09:53.553Z,28.00
2023-04-16T11:12:21.798Z,27.95
2023-04-16T11:14:50.101Z,24.20
2023-04-16T11:17:17.166Z,23.38
2023-04-16T11:19:43.881Z,23.80
2023-04-16T11:22:13.026Z,27.70
2023-04-16T11:24:39.522Z,25.40
2023-04-16T11:27:07.956Z,33.72
2023-04-16T11:29:34.607Z,36.65
2023-04-16T11:32:01.335Z,27.20
2023-04-16T11:34:27.871Z,21.38
2023-04-16T11:36:54.425Z,23.20
2023-04-16T11:39:20.916Z,24.88
2023-04-16T11:41:49.476Z,23.60
2023-04-16T11:44:22.239Z,22.70
2023-04-16T11:46:49.389Z,22.42
2023-04-16T11:49:16.116Z,22.20
2023-04-16T11:51:43.660Z,24.67
2023-04-16T11:54:17.892Z,22.67
2023-04-16T11:56:46.583Z,21.40
2023-04-16T11:59:14.592Z,22.42
2023-04-16T12:01:46.863Z,23.00
2023-04-16T12:04:14.304Z,22.00
2023-04-16T12:06:41.056Z,23.58
2023-04-16T12:09:23.515Z,23.45
2023-04-16T12:11:50.309Z,24.00
2023-04-16T12:14:16.864Z,24.13
2023-04-16T12:16:44.915Z,22.92
2023-04-16T12:19:12.654Z,22.65
2023-04-16T12:21:41.127Z,22.30
2023-04-16T12:24:09.413Z,21.58
2023-04-16T12:26:37.923Z,22.70
2023-04-16T12:29:18.664Z,21.38
2023-04-16T12:31:46.786Z,21.30
2023-04-16T12:34:13.830Z,20.13
2023-04-16T12:36:40.535Z,17.60
2023-04-16T12:39:07.426Z,17.50
2023-04-16T12:41:36.872Z,20.02
2023-04-16T12:44:05.004Z,17.33
2023-04-16T12:46:31.578Z,17.05
2023-04-16T12:48:59.729Z,19.20
2023-04-16T12:51:26.459Z,17.08
2023-04-16T12:53:53.032Z,18.33
2023-04-16T12:56:19.634Z,19.05
2023-04-16T12:58:46.162Z,17.05
2023-04-16T13:01:12.694Z,15.13
2023-04-16T13:03:39.490Z,16.42
2023-04-16T13:06:08.124Z,16.05
2023-04-16T13:08:34.640Z,14.43
2023-04-16T13:11:01.208Z,15.10
2023-04-16T13:13:27.867Z,16.30
2023-04-16T13:15:54.515Z,16.23
2023-04-16T13:18:21.088Z,16.80
2023-04-16T13:20:47.618Z,17.23
2023-04-16T13:23:15.588Z,20.48
2023-04-16T13:25:42.124Z,15.25
2023-04-16T13:28:08.677Z,14.73
2023-04-16T13:30:35.312Z,15.48
2023-04-16T13:33:02.329Z,15.10
2023-04-16T13:35:29.802Z,17.02
2023-04-16T13:37:56.348Z,16.52
2023-04-16T13:40:24.266Z,15.77
2023-04-16T13:42:52.119Z,14.75
2023-04-16T13:45:19.041Z,13.85
2023-04-16T13:47:45.897Z,13.48
2023-04-16T13:50:12.717Z,13.00
2023-04-16T13:52:39.547Z,12.85
2023-04-16T13:55:06.963Z,17.55
2023-04-16T13:57:36.636Z,13.73
2023-04-16T14:00:03.679Z,13.38
2023-04-16T14:02:31.523Z,13.93
2023-04-16T14:04:58.217Z,12.25
2023-04-16T14:07:24.879Z,14.05
2023-04-16T14:09:51.458Z,15.38
2023-04-16T14:12:18.049Z,12.73
2023-04-16T14:14:45.963Z,15.85
2023-04-16T14:17:12.505Z,13.43
2023-04-16T14:19:39.085Z,13.50
2023-04-16T14:22:06.973Z,13.52
2023-04-16T14:24:35.260Z,13.93
2023-04-16T14:27:01.825Z,12.20
2023-04-16T14:29:28.402Z,14.60
2023-04-16T14:31:56.284Z,14.52
2023-04-16T14:34:23.154Z,14.10
2023-04-16T14:36:50.259Z,15.35
2023-04-16T14:39:16.776Z,13.68
2023-04-16T14:41:43.350Z,14.55
2023-04-16T14:44:10.015Z,14.80
2023-04-16T14:46:36.573Z,14.90
2023-04-16T14:49:04.989Z,14.40
2023-04-16T14:51:31.794Z,14.60
2023-04-16T14:53:58.342Z,13.85
2023-04-16T14:56:24.872Z,14.60
2023-04-16T14:58:51.432Z,15.77
2023-04-16T15:01:18.033Z,14.75
2023-04-16T15:03:44.813Z,14.95
2023-04-16T15:06:13.837Z,13.02
2023-04-16T15:08:40.444Z,12.85
2023-04-16T15:11:07.083Z,14.10
2023-04-16T15:13:33.607Z,13.07
2023-04-16T15:16:00.838Z,13.43
2023-04-16T15:18:27.636Z,13.85
2023-04-16T15:20:54.412Z,12.05
2023-04-16T15:23:22.466Z,14.50
2023-04-16T15:25:48.976Z,14.90
2023-04-16T15:28:15.592Z,16.15
2023-04-16T15:30:42.366Z,13.13
2023-04-16T15:33:09.393Z,14.20
2023-04-16T15:35:36.279Z,12.63
2023-04-16T15:38:02.766Z,16.50
2023-04-16T15:40:31.083Z,15.48
2023-04-16T15:42:57.695Z,13.50
2023-04-16T15:45:24.236Z,14.23
2023-04-16T15:47:50.831Z,16.13
2023-04-16T15:50:17.499Z,13.90
2023-04-16T15:52:44.012Z,16.67
2023-04-16T15:55:10.589Z,17.80
2023-04-16T15:57:38.646Z,14.45
2023-04-16T16:00:07.411Z,14.23
2023-04-16T16:02:34.421Z,17.08
2023-04-16T16:05:01.190Z,14.45
2023-04-16T16:07:27.724Z,13.90
2023-04-16T16:09:54.297Z,15.50
2023-04-16T16:12:20.806Z,16.52
2023-04-16T16:14:48.651Z,14.55
2023-04-16T16:17:15.172Z,15.30
2023-04-16T16:19:41.665Z,14.82
2023-04-16T16:22:08.177Z,16.00
2023-04-16T16:24:34.706Z,16.33
2023-04-16T16:27:01.245Z,15.32
2023-04-16T16:29:27.766Z,15.80
2023-04-16T16:31:55.715Z,17.25
2023-04-16T16:34:22.312Z,16.10
2023-04-16T16:36:48.934Z,18.60
2023-04-16T16:39:15.510Z,19.92
2023-04-16T16:41:42.068Z,20.25
2023-04-16T16:44:08.716Z,17.40
2023-04-16T16:46:35.241Z,17.83
2023-04-16T16:49:03.190Z,18.77
2023-04-16T16:51:29.654Z,16.60
2023-04-16T16:53:56.193Z,17.58
2023-04-16T16:56:22.674Z,18.75
2023-04-16T16:58:49.166Z,20.48
2023-04-16T17:01:15.795Z,18.15
2023-04-16T17:03:42.463Z,19.25
2023-04-16T17:06:10.456Z,18.00
2023-04-16T17:08:37.015Z,15.95
2023-04-16T17:11:03.954Z,17.00
2023-04-16T17:13:30.547Z,17.17
2023-04-16T17:15:57.061Z,17.55
2023-04-16T17:18:23.743Z,20.30
2023-04-16T17:20:50.247Z,17.30
2023-04-16T17:23:18.120Z,17.45
2023-04-16T17:25:44.659Z,18.50
2023-04-16T17:28:11.174Z,17.13
2023-04-16T17:30:37.686Z,19.30
2023-04-16T17:33:04.661Z,16.63
2023-04-16T17:35:31.450Z,19.58
2023-04-16T17:37:57.986Z,19.98
2023-04-16T17:40:25.899Z,18.88
2023-04-16T17:42:52.481Z,17.38
2023-04-16T17:45:19.027Z,18.98
2023-04-16T17:47:45.567Z,19.67
2023-04-16T17:50:12.180Z,18.33
2023-04-16T17:52:38.938Z,18.95
2023-04-16T17:55:06.393Z,16.17
2023-04-16T17:57:34.251Z,23.40
2023-04-16T18:00:00.802Z,16.80
2023-04-16T18:02:27.489Z,17.80
2023-04-16T18:04:54.540Z,18.42
2023-04-16T18:07:21.378Z,18.90
2023-04-16T18:09:47.883Z,16.70
2023-04-16T18:12:14.817Z,18.33
2023-04-16T18:14:42.690Z,18.00
2023-04-16T18:17:09.203Z,19.52
2023-04-16T18:19:35.725Z,17.65
2023-04-16T18:22:02.323Z,16.98
2023-04-16T18:24:28.838Z,17.55
2023-04-16T18:26:55.432Z,19.40
2023-04-16T18:29:24.792Z,18.42
2023-04-16T18:31:54.548Z,17.10
2023-04-16T18:34:22.217Z,20.92
2023-04-16T18:36:48.769Z,17.08
2023-04-16T18:39:15.292Z,18.95
2023-04-16T18:41:41.813Z,15.65
2023-04-16T18:44:08.271Z,18.98
2023-04-16T18:46:34.803Z,17.33
2023-04-16T18:49:02.749Z,17.52
2023-04-16T18:51:29.282Z,17.15
2023-04-16T18:53:55.795Z,17.85
2023-04-16T18:56:22.316Z,16.02
2023-04-16T18:58:48.795Z,16.15
2023-04-16T19:01:15.344Z,19.95
2023-04-16T19:03:42.091Z,16.75
2023-04-16T19:06:10.008Z,16.52
2023-04-16T19:08:36.583Z,19.08
2023-04-16T19:11:03.292Z,17.88
2023-04-16T19:13:30.659Z,15.80
2023-04-16T19:15:57.621Z,16.50
2023-04-16T19:18:24.275Z,18.98
2023-04-16T19:20:50.867Z,15.50
2023-04-16T19:23:18.759Z,16.42
2023-04-16T19:25:45.266Z,17.10
2023-04-16T19:28:11.744Z,18.40
2023-04-16T19:30:38.239Z,15.77
2023-04-16T19:33:04.801Z,14.60
2023-04-16T19:35:31.711Z,17.40
2023-04-16T19:37:58.287Z,16.95
2023-04-16T19:40:26.284Z,15.85
2023-04-16T19:42:52.837Z,22.70
2023-04-16T19:45:19.316Z,18.40
2023-04-16T19:47:45.886Z,16.58
2023-04-16T19:50:12.408Z,16.13
2023-04-16T19:52:39.118Z,16.08
2023-04-16T19:55:06.874Z,17.20
2023-04-16T19:57:34.873Z,18.05
2023-04-16T20:00:01.486Z,17.52
2023-04-16T20:02:30.900Z,17.05
2023-04-16T20:04:57.528Z,18.65
2023-04-16T20:07:24.060Z,16.55
2023-04-16T20:09:50.578Z,15.90
2023-04-16T20:12:17.115Z,16.83
2023-04-16T20:14:45.026Z,19.65
2023-04-16T20:17:11.631Z,17.67
2023-04-16T20:19:38.185Z,18.48
2023-04-16T20:22:04.872Z,16.98
2023-04-16T20:24:31.491Z,17.92
2023-04-16T20:26:58.020Z,16.77
2023-04-16T20:29:24.544Z,15.55
2023-04-16T20:31:52.489Z,17.08
2023-04-16T20:34:19.007Z,18.77
2023-04-16T20:36:45.515Z,18.02
2023-04-16T20:39:12.623Z,15.88
2023-04-16T20:41:39.368Z,18.77
2023-04-16T20:44:05.897Z,16.05
2023-04-16T20:46:32.471Z,17.92
2023-04-16T20:49:00.401Z,19.30
2023-04-16T20:51:26.977Z,18.50
2023-04-16T20:53:53.703Z,14.82
2023-04-16T20:56:20.219Z,15.88
2023-04-16T20:58:46.760Z,16.02
2023-04-16T21:01:13.396Z,13.63
2023-04-16T21:03:40.221Z,15.80
2023-04-16T21:06:08.220Z,14.40
2023-04-16T21:08:35.290Z,13.77
2023-04-16T21:11:01.817Z,19.50
2023-04-16T21:13:28.319Z,16.33
2023-04-16T21:15:54.929Z,14.40
2023-04-16T21:18:21.492Z,16.35
2023-04-16T21:20:48.038Z,16.77
2023-04-16T21:23:15.954Z,15.98
2023-04-16T21:25:42.459Z,15.45
2023-04-16T21:28:08.976Z,15.98
2023-04-16T21:30:35.558Z,14.00
2023-04-16T21:33:02.113Z,16.60
2023-04-16T21:35:31.238Z,16.73
2023-04-16T21:37:57.806Z,16.60
2023-04-16T21:40:25.689Z,13.73
2023-04-16T21:42:52.218Z,15.45
2023-04-16T21:45:18.873Z,14.57
2023-04-16T21:47:45.403Z,14.88
2023-04-16T21:50:12.661Z,15.85
2023-04-16T21:52:39.155Z,13.15
2023-04-16T21:55:07.628Z,18.45
2023-04-16T21:57:35.493Z,19.67
2023-04-16T22:00:02.346Z,14.75
2023-04-16T22:02:30.946Z,14.60
2023-04-16T22:04:57.614Z,16.80
2023-04-16T22:07:24.223Z,13.63
2023-04-16T22:09:50.736Z,16.70
2023-04-16T22:12:17.240Z,17.15
2023-04-16T22:14:55.858Z,17.35
2023-04-16T22:17:28.838Z,12.70
2023-04-16T22:19:55.376Z,13.63
2023-04-16T22:22:21.991Z,14.25
2023-04-16T22:24:48.626Z,15.48
2023-04-16T22:27:15.221Z,18.48
2023-04-16T22:29:41.781Z,14.80
2023-04-16T22:32:09.836Z,16.08
2023-04-16T22:34:36.406Z,17.17
2023-04-16T22:37:03.012Z,15.85
2023-04-16T22:39:29.601Z,20.10
2023-04-16T22:41:56.182Z,20.20
2023-04-16T22:44:22.729Z,18.05
2023-04-16T22:46:49.568Z,16.17
2023-04-16T22:49:17.610Z,16.75
2023-04-16T22:51:44.399Z,19.73
2023-04-16T22:54:12.053Z,17.20
2023-04-16T22:56:40.747Z,18.17
2023-04-16T22:59:07.654Z,20.35
2023-04-16T23:01:34.481Z,16.95
2023-04-16T23:04:01.033Z,19.42
2023-04-16T23:06:28.947Z,20.00
2023-04-16T23:08:55.478Z,24.27
2023-04-16T23:11:22.460Z,20.27
2023-04-16T23:13:48.959Z,18.48
2023-04-16T23:16:15.571Z,24.00
2023-04-16T23:18:42.140Z,25.02
2023-04-16T23:21:08.733Z,24.90
2023-04-16T23:23:36.660Z,21.42
2023-04-16T23:26:03.680Z,24.20
2023-04-16T23:28:30.179Z,24.67
2023-04-16T23:30:56.826Z,21.67
2023-04-16T23:33:23.442Z,24.08
2023-04-16T23:35:49.982Z,24.30
2023-04-16T23:38:16.500Z,23.17
2023-04-16T23:40:44.520Z,20.70
2023-04-16T23:43:11.011Z,26.35
2023-04-16T23:45:37.715Z,25.80
2023-04-16T23:48:04.483Z,21.27
2023-04-16T23:50:31.133Z,21.98
2023-04-16T23:52:57.708Z,23.63
2023-04-16T23:55:24.708Z,21.33
2023-04-16T23:57:52.582Z,22.42
